sensor_id;sensor_type;location;lat;lon;timestamp;temperature;humidity
10431;DHT22;5262;59.958;17.726;2023-04-29T00:00:27;0.40;99.90
10431;DHT22;5262;59.958;17.726;2023-04-29T00:02:52;0.40;99.90
10431;DHT22;5262;59.958;17.726;2023-04-29T00:05:19;0.50;99.90
10431;DHT22;5262;59.958;17.726;2023-04-29T00:07:44;0.40;99.90
10431;DHT22;5262;59.958;17.726;2023-04-29T00:10:10;0.20;99.90
10431;DHT22;5262;59.958;17.726;2023-04-29T00:12:39;0.30;99.90
10431;DHT22;5262;59.958;17.726;2023-04-29T00:15:06;0.20;99.90
10431;DHT22;5262;59.958;17.726;2023-04-29T00:17:33;0.10;99.90
10431;DHT22;5262;59.958;17.726;2023-04-29T00:19:59;0.00;99.90
10431;DHT22;5262;59.958;17.726;2023-04-29T00:22:24;-0.10;99.90
10431;DHT22;5262;59.958;17.726;2023-04-29T00:24:50;-0.10;99.90
10431;DHT22;5262;59.958;17.726;2023-04-29T00:27:17;-0.20;99.90
10431;DHT22;5262;59.958;17.726;2023-04-29T00:29:43;-0.20;99.90
10431;DHT22;5262;59.958;17.726;2023-04-29T00:32:09;-0.30;99.90
10431;DHT22;5262;59.958;17.726;2023-04-29T00:34:34;-0.30;99.90
10431;DHT22;5262;59.958;17.726;2023-04-29T00:37:00;-0.30;99.90
10431;DHT22;5262;59.958;17.726;2023-04-29T00:39:26;-0.30;99.90
10431;DHT22;5262;59.958;17.726;2023-04-29T00:41:52;-0.30;99.90
10431;DHT22;5262;59.958;17.726;2023-04-29T00:44:17;-0.40;99.90
10431;DHT22;5262;59.958;17.726;2023-04-29T00:46:43;-0.50;99.90
10431;DHT22;5262;59.958;17.726;2023-04-29T00:49:10;-0.50;99.90
10431;DHT22;5262;59.958;17.726;2023-04-29T00:51:37;-0.60;99.90
10431;DHT22;5262;59.958;17.726;2023-04-29T00:54:05;-0.60;99.90
10431;DHT22;5262;59.958;17.726;2023-04-29T00:56:33;-0.60;99.90
10431;DHT22;5262;59.958;17.726;2023-04-29T00:59:01;-0.70;99.90
10431;DHT22;5262;59.958;17.726;2023-04-29T01:01:28;-0.70;99.90
10431;DHT22;5262;59.958;17.726;2023-04-29T01:03:55;-0.70;99.90
10431;DHT22;5262;59.958;17.726;2023-04-29T01:06:39;-0.80;99.90
10431;DHT22;5262;59.958;17.726;2023-04-29T01:18:14;-0.80;99.90
10431;DHT22;5262;59.958;17.726;2023-04-29T01:20:40;-0.80;99.90
10431;DHT22;5262;59.958;17.726;2023-04-29T01:23:09;-0.80;99.90
10431;DHT22;5262;59.958;17.726;2023-04-29T01:25:35;-0.90;99.90
10431;DHT22;5262;59.958;17.726;2023-04-29T01:30:47;-0.80;99.90
10431;DHT22;5262;59.958;17.726;2023-04-29T01:33:49;-0.90;99.90
10431;DHT22;5262;59.958;17.726;2023-04-29T01:36:32;-0.90;99.90
10431;DHT22;5262;59.958;17.726;2023-04-29T01:41:59;-0.90;99.90
10431;DHT22;5262;59.958;17.726;2023-04-29T01:44:28;-0.90;99.90
10431;DHT22;5262;59.958;17.726;2023-04-29T01:46:56;-0.90;99.90
10431;DHT22;5262;59.958;17.726;2023-04-29T01:49:29;-1.00;99.90
10431;DHT22;5262;59.958;17.726;2023-04-29T01:51:55;-1.00;99.90
10431;DHT22;5262;59.958;17.726;2023-04-29T01:54:21;-1.00;99.90
10431;DHT22;5262;59.958;17.726;2023-04-29T01:56:47;-1.00;99.90
10431;DHT22;5262;59.958;17.726;2023-04-29T01:59:13;-1.10;99.90
10431;DHT22;5262;59.958;17.726;2023-04-29T02:01:38;-1.10;99.90
10431;DHT22;5262;59.958;17.726;2023-04-29T02:04:04;-1.10;99.90
10431;DHT22;5262;59.958;17.726;2023-04-29T02:06:29;-1.20;99.90
10431;DHT22;5262;59.958;17.726;2023-04-29T02:08:57;-1.20;99.90
10431;DHT22;5262;59.958;17.726;2023-04-29T02:11:22;-1.20;99.90
10431;DHT22;5262;59.958;17.726;2023-04-29T02:13:48;-1.20;99.90
10431;DHT22;5262;59.958;17.726;2023-04-29T02:16:14;-1.20;99.90
10431;DHT22;5262;59.958;17.726;2023-04-29T02:18:40;-1.30;99.90
10431;DHT22;5262;59.958;17.726;2023-04-29T02:21:06;-1.30;99.90
10431;DHT22;5262;59.958;17.726;2023-04-29T02:23:32;-1.40;99.90
10431;DHT22;5262;59.958;17.726;2023-04-29T02:25:58;-1.40;99.90
10431;DHT22;5262;59.958;17.726;2023-04-29T02:28:24;-1.40;99.90
10431;DHT22;5262;59.958;17.726;2023-04-29T02:30:50;-1.30;99.90
10431;DHT22;5262;59.958;17.726;2023-04-29T02:33:16;-1.40;99.90
10431;DHT22;5262;59.958;17.726;2023-04-29T02:35:43;-1.40;99.90
10431;DHT22;5262;59.958;17.726;2023-04-29T02:38:08;-1.40;99.90
10431;DHT22;5262;59.958;17.726;2023-04-29T02:40:39;-1.50;99.90
10431;DHT22;5262;59.958;17.726;2023-04-29T02:43:05;-1.50;99.90
10431;DHT22;5262;59.958;17.726;2023-04-29T02:45:30;-1.50;99.90
10431;DHT22;5262;59.958;17.726;2023-04-29T02:47:56;-1.50;99.90
10431;DHT22;5262;59.958;17.726;2023-04-29T02:50:22;-1.50;99.90
10431;DHT22;5262;59.958;17.726;2023-04-29T02:52:49;-1.60;99.90
10431;DHT22;5262;59.958;17.726;2023-04-29T02:55:15;-1.60;99.90
10431;DHT22;5262;59.958;17.726;2023-04-29T02:57:41;-1.60;99.90
10431;DHT22;5262;59.958;17.726;2023-04-29T03:00:08;-1.60;99.90
10431;DHT22;5262;59.958;17.726;2023-04-29T03:02:34;-1.60;99.90
10431;DHT22;5262;59.958;17.726;2023-04-29T03:05:00;-1.60;99.90
10431;DHT22;5262;59.958;17.726;2023-04-29T03:07:26;-1.60;99.90
10431;DHT22;5262;59.958;17.726;2023-04-29T03:09:53;-1.60;99.90
10431;DHT22;5262;59.958;17.726;2023-04-29T03:12:19;-1.60;99.90
10431;DHT22;5262;59.958;17.726;2023-04-29T03:14:44;-1.50;99.90
10431;DHT22;5262;59.958;17.726;2023-04-29T03:17:10;-1.50;99.90
10431;DHT22;5262;59.958;17.726;2023-04-29T03:19:36;-1.40;99.90
10431;DHT22;5262;59.958;17.726;2023-04-29T03:22:02;-1.40;99.90
10431;DHT22;5262;59.958;17.726;2023-04-29T03:24:28;-1.40;99.90
10431;DHT22;5262;59.958;17.726;2023-04-29T03:26:53;-1.40;99.90
10431;DHT22;5262;59.958;17.726;2023-04-29T03:29:19;-1.40;99.90
10431;DHT22;5262;59.958;17.726;2023-04-29T03:31:45;-1.30;99.90
10431;DHT22;5262;59.958;17.726;2023-04-29T03:34:11;-1.30;99.90
10431;DHT22;5262;59.958;17.726;2023-04-29T03:36:39;-1.20;99.90
10431;DHT22;5262;59.958;17.726;2023-04-29T03:39:04;-1.20;99.90
10431;DHT22;5262;59.958;17.726;2023-04-29T03:41:30;-1.10;99.90
10431;DHT22;5262;59.958;17.726;2023-04-29T03:43:56;-1.10;99.90
10431;DHT22;5262;59.958;17.726;2023-04-29T03:46:26;-1.10;99.90
10431;DHT22;5262;59.958;17.726;2023-04-29T03:48:51;-1.00;99.90
10431;DHT22;5262;59.958;17.726;2023-04-29T03:51:21;-1.00;99.90
10431;DHT22;5262;59.958;17.726;2023-04-29T03:53:47;-1.00;99.90
10431;DHT22;5262;59.958;17.726;2023-04-29T03:56:13;-0.90;99.90
10431;DHT22;5262;59.958;17.726;2023-04-29T03:58:38;-0.90;99.90
10431;DHT22;5262;59.958;17.726;2023-04-29T04:01:04;-0.80;99.90
10431;DHT22;5262;59.958;17.726;2023-04-29T04:03:30;-0.80;99.90
10431;DHT22;5262;59.958;17.726;2023-04-29T04:05:55;-0.80;99.90
10431;DHT22;5262;59.958;17.726;2023-04-29T04:08:21;-0.80;99.90
10431;DHT22;5262;59.958;17.726;2023-04-29T04:10:47;-0.70;99.90
10431;DHT22;5262;59.958;17.726;2023-04-29T04:13:12;-0.60;99.90
10431;DHT22;5262;59.958;17.726;2023-04-29T04:15:38;-0.60;99.90
10431;DHT22;5262;59.958;17.726;2023-04-29T04:18:04;-0.40;99.90
10431;DHT22;5262;59.958;17.726;2023-04-29T04:20:30;-0.40;99.90
10431;DHT22;5262;59.958;17.726;2023-04-29T04:22:56;-0.30;99.90
10431;DHT22;5262;59.958;17.726;2023-04-29T04:25:22;-0.30;99.90
10431;DHT22;5262;59.958;17.726;2023-04-29T04:27:47;-0.30;99.90
10431;DHT22;5262;59.958;17.726;2023-04-29T04:30:13;0.00;99.90
10431;DHT22;5262;59.958;17.726;2023-04-29T04:32:39;-0.10;99.90
10431;DHT22;5262;59.958;17.726;2023-04-29T04:35:05;0.10;99.90
10431;DHT22;5262;59.958;17.726;2023-04-29T04:37:31;0.50;99.90
10431;DHT22;5262;59.958;17.726;2023-04-29T04:39:57;0.60;99.90
10431;DHT22;5262;59.958;17.726;2023-04-29T04:42:22;0.60;99.90
10431;DHT22;5262;59.958;17.726;2023-04-29T04:44:48;0.60;99.90
10431;DHT22;5262;59.958;17.726;2023-04-29T04:47:14;0.70;99.90
10431;DHT22;5262;59.958;17.726;2023-04-29T04:49:39;0.70;99.90
10431;DHT22;5262;59.958;17.726;2023-04-29T04:52:05;1.00;99.90
10431;DHT22;5262;59.958;17.726;2023-04-29T04:54:31;1.00;99.90
10431;DHT22;5262;59.958;17.726;2023-04-29T04:56:57;1.20;99.90
10431;DHT22;5262;59.958;17.726;2023-04-29T04:59:22;1.50;99.90
10431;DHT22;5262;59.958;17.726;2023-04-29T05:01:51;2.00;99.90
10431;DHT22;5262;59.958;17.726;2023-04-29T05:04:17;2.30;99.90
10431;DHT22;5262;59.958;17.726;2023-04-29T05:06:42;2.50;99.90
10431;DHT22;5262;59.958;17.726;2023-04-29T05:09:08;2.80;99.90
10431;DHT22;5262;59.958;17.726;2023-04-29T05:11:33;3.10;99.90
10431;DHT22;5262;59.958;17.726;2023-04-29T05:13:59;3.20;99.90
10431;DHT22;5262;59.958;17.726;2023-04-29T05:16:25;3.30;99.90
10431;DHT22;5262;59.958;17.726;2023-04-29T05:18:50;3.40;99.90
10431;DHT22;5262;59.958;17.726;2023-04-29T05:21:16;3.60;99.90
10431;DHT22;5262;59.958;17.726;2023-04-29T05:23:41;3.60;99.90
10431;DHT22;5262;59.958;17.726;2023-04-29T05:26:07;3.80;99.90
10431;DHT22;5262;59.958;17.726;2023-04-29T05:28:33;3.90;99.90
10431;DHT22;5262;59.958;17.726;2023-04-29T05:30:59;3.90;99.90
10431;DHT22;5262;59.958;17.726;2023-04-29T05:33:24;4.00;99.90
10431;DHT22;5262;59.958;17.726;2023-04-29T05:35:50;4.10;99.90
10431;DHT22;5262;59.958;17.726;2023-04-29T05:38:16;4.20;99.90
10431;DHT22;5262;59.958;17.726;2023-04-29T05:40:41;4.20;99.90
10431;DHT22;5262;59.958;17.726;2023-04-29T05:43:07;4.30;99.90
10431;DHT22;5262;59.958;17.726;2023-04-29T05:45:33;4.50;99.90
10431;DHT22;5262;59.958;17.726;2023-04-29T05:47:58;4.60;99.90
10431;DHT22;5262;59.958;17.726;2023-04-29T05:50:24;4.70;99.90
10431;DHT22;5262;59.958;17.726;2023-04-29T05:52:50;4.80;99.90
10431;DHT22;5262;59.958;17.726;2023-04-29T05:55:16;4.90;99.90
10431;DHT22;5262;59.958;17.726;2023-04-29T05:57:42;5.00;99.90
10431;DHT22;5262;59.958;17.726;2023-04-29T06:00:08;5.10;99.90
10431;DHT22;5262;59.958;17.726;2023-04-29T06:02:34;5.20;99.90
10431;DHT22;5262;59.958;17.726;2023-04-29T06:05:00;5.40;99.90
10431;DHT22;5262;59.958;17.726;2023-04-29T06:07:25;5.40;99.90
10431;DHT22;5262;59.958;17.726;2023-04-29T06:09:52;5.50;99.90
10431;DHT22;5262;59.958;17.726;2023-04-29T06:12:19;5.80;99.90
10431;DHT22;5262;59.958;17.726;2023-04-29T06:14:44;6.00;99.90
10431;DHT22;5262;59.958;17.726;2023-04-29T06:17:10;6.20;99.90
10431;DHT22;5262;59.958;17.726;2023-04-29T06:19:36;6.50;99.90
10431;DHT22;5262;59.958;17.726;2023-04-29T06:22:02;7.00;99.90
10431;DHT22;5262;59.958;17.726;2023-04-29T06:24:28;7.40;99.90
10431;DHT22;5262;59.958;17.726;2023-04-29T06:26:53;7.40;99.90
10431;DHT22;5262;59.958;17.726;2023-04-29T06:29:19;7.40;99.90
10431;DHT22;5262;59.958;17.726;2023-04-29T06:31:44;7.40;99.90
10431;DHT22;5262;59.958;17.726;2023-04-29T06:34:10;7.70;99.90
10431;DHT22;5262;59.958;17.726;2023-04-29T06:36:36;7.80;99.90
10431;DHT22;5262;59.958;17.726;2023-04-29T06:39:01;7.90;99.90
10431;DHT22;5262;59.958;17.726;2023-04-29T06:41:27;7.80;99.90
10431;DHT22;5262;59.958;17.726;2023-04-29T06:43:53;7.80;99.90
10431;DHT22;5262;59.958;17.726;2023-04-29T06:46:19;7.90;99.90
10431;DHT22;5262;59.958;17.726;2023-04-29T06:48:45;8.20;99.90
10431;DHT22;5262;59.958;17.726;2023-04-29T06:51:10;8.40;99.90
10431;DHT22;5262;59.958;17.726;2023-04-29T06:53:36;8.90;99.90
10431;DHT22;5262;59.958;17.726;2023-04-29T06:56:02;9.10;99.90
10431;DHT22;5262;59.958;17.726;2023-04-29T06:58:27;9.40;99.90
10431;DHT22;5262;59.958;17.726;2023-04-29T07:00:53;9.00;99.90
10431;DHT22;5262;59.958;17.726;2023-04-29T07:03:18;8.90;99.90
10431;DHT22;5262;59.958;17.726;2023-04-29T07:05:44;9.10;99.90
10431;DHT22;5262;59.958;17.726;2023-04-29T07:08:11;10.10;99.90
10431;DHT22;5262;59.958;17.726;2023-04-29T07:10:37;11.40;99.10
10431;DHT22;5262;59.958;17.726;2023-04-29T07:13:03;11.90;98.50
10431;DHT22;5262;59.958;17.726;2023-04-29T07:15:32;12.80;95.70
10431;DHT22;5262;59.958;17.726;2023-04-29T07:17:58;13.40;94.70
10431;DHT22;5262;59.958;17.726;2023-04-29T07:20:25;14.50;93.50
10431;DHT22;5262;59.958;17.726;2023-04-29T07:22:52;15.80;91.50
10431;DHT22;5262;59.958;17.726;2023-04-29T07:25:18;16.00;83.90
10431;DHT22;5262;59.958;17.726;2023-04-29T07:27:43;16.20;80.50
10431;DHT22;5262;59.958;17.726;2023-04-29T07:30:09;16.20;80.00
10431;DHT22;5262;59.958;17.726;2023-04-29T07:32:35;17.00;79.10
10431;DHT22;5262;59.958;17.726;2023-04-29T07:35:01;17.20;76.00
10431;DHT22;5262;59.958;17.726;2023-04-29T07:37:27;16.50;71.90
10431;DHT22;5262;59.958;17.726;2023-04-29T07:39:53;16.30;75.00
10431;DHT22;5262;59.958;17.726;2023-04-29T07:42:19;17.00;72.00
10431;DHT22;5262;59.958;17.726;2023-04-29T07:44:44;17.50;70.80
10431;DHT22;5262;59.958;17.726;2023-04-29T07:47:10;17.80;68.80
10431;DHT22;5262;59.958;17.726;2023-04-29T07:49:37;17.50;67.50
10431;DHT22;5262;59.958;17.726;2023-04-29T07:52:06;17.70;65.70
10431;DHT22;5262;59.958;17.726;2023-04-29T07:54:32;18.10;67.70
10431;DHT22;5262;59.958;17.726;2023-04-29T07:56:57;18.10;64.60
10431;DHT22;5262;59.958;17.726;2023-04-29T07:59:23;18.30;65.30
10431;DHT22;5262;59.958;17.726;2023-04-29T08:01:49;19.10;61.70
10431;DHT22;5262;59.958;17.726;2023-04-29T08:04:14;18.50;59.00
10431;DHT22;5262;59.958;17.726;2023-04-29T08:06:40;17.50;59.20
10431;DHT22;5262;59.958;17.726;2023-04-29T08:09:08;16.60;60.40
10431;DHT22;5262;59.958;17.726;2023-04-29T08:11:35;16.00;61.60
10431;DHT22;5262;59.958;17.726;2023-04-29T08:14:00;14.10;62.10
10431;DHT22;5262;59.958;17.726;2023-04-29T08:16:26;14.40;65.40
10431;DHT22;5262;59.958;17.726;2023-04-29T08:18:52;13.50;63.80
10431;DHT22;5262;59.958;17.726;2023-04-29T08:21:18;14.20;67.30
10431;DHT22;5262;59.958;17.726;2023-04-29T08:23:44;14.40;62.40
10431;DHT22;5262;59.958;17.726;2023-04-29T08:26:10;13.80;58.90
10431;DHT22;5262;59.958;17.726;2023-04-29T08:28:38;14.00;58.80
10431;DHT22;5262;59.958;17.726;2023-04-29T08:31:04;14.50;57.10
10431;DHT22;5262;59.958;17.726;2023-04-29T08:33:32;15.10;61.90
10431;DHT22;5262;59.958;17.726;2023-04-29T08:35:59;15.70;58.30
10431;DHT22;5262;59.958;17.726;2023-04-29T08:38:25;16.00;58.90
10431;DHT22;5262;59.958;17.726;2023-04-29T08:40:50;16.00;54.90
10431;DHT22;5262;59.958;17.726;2023-04-29T08:43:16;16.60;56.60
10431;DHT22;5262;59.958;17.726;2023-04-29T08:45:42;17.00;56.60
10431;DHT22;5262;59.958;17.726;2023-04-29T08:48:09;17.10;56.60
10431;DHT22;5262;59.958;17.726;2023-04-29T08:50:40;16.30;56.20
10431;DHT22;5262;59.958;17.726;2023-04-29T08:53:10;16.00;60.20
10431;DHT22;5262;59.958;17.726;2023-04-29T08:55:43;17.10;59.00
10431;DHT22;5262;59.958;17.726;2023-04-29T08:58:09;17.10;56.20
10431;DHT22;5262;59.958;17.726;2023-04-29T09:00:35;17.80;53.00
10431;DHT22;5262;59.958;17.726;2023-04-29T09:03:19;18.10;50.40
10431;DHT22;5262;59.958;17.726;2023-04-29T09:05:48;18.10;42.90
10431;DHT22;5262;59.958;17.726;2023-04-29T09:08:17;17.80;45.20
10431;DHT22;5262;59.958;17.726;2023-04-29T09:10:43;17.60;45.70
10431;DHT22;5262;59.958;17.726;2023-04-29T09:13:25;18.80;43.90
10431;DHT22;5262;59.958;17.726;2023-04-29T09:15:51;17.80;44.10
10431;DHT22;5262;59.958;17.726;2023-04-29T09:18:54;18.00;44.00
10431;DHT22;5262;59.958;17.726;2023-04-29T09:21:28;16.90;45.30
10431;DHT22;5262;59.958;17.726;2023-04-29T09:23:56;14.90;46.10
10431;DHT22;5262;59.958;17.726;2023-04-29T09:26:22;15.30;49.30
10431;DHT22;5262;59.958;17.726;2023-04-29T09:29:08;14.60;51.40
10431;DHT22;5262;59.958;17.726;2023-04-29T09:31:37;15.00;50.60
10431;DHT22;5262;59.958;17.726;2023-04-29T09:34:03;15.10;50.60
10431;DHT22;5262;59.958;17.726;2023-04-29T09:36:49;14.70;49.50
10431;DHT22;5262;59.958;17.726;2023-04-29T09:39:19;14.30;50.10
10431;DHT22;5262;59.958;17.726;2023-04-29T09:44:22;13.70;50.30
10431;DHT22;5262;59.958;17.726;2023-04-29T09:47:05;12.90;50.60
10431;DHT22;5262;59.958;17.726;2023-04-29T09:49:42;12.70;52.70
10431;DHT22;5262;59.958;17.726;2023-04-29T09:52:14;12.60;54.40
10431;DHT22;5262;59.958;17.726;2023-04-29T09:54:45;11.90;54.00
10431;DHT22;5262;59.958;17.726;2023-04-29T09:57:12;11.80;56.30
10431;DHT22;5262;59.958;17.726;2023-04-29T09:59:40;12.10;57.10
10431;DHT22;5262;59.958;17.726;2023-04-29T10:02:13;12.20;56.40
10431;DHT22;5262;59.958;17.726;2023-04-29T10:04:44;12.80;55.90
10431;DHT22;5262;59.958;17.726;2023-04-29T10:07:14;12.70;54.90
10431;DHT22;5262;59.958;17.726;2023-04-29T10:09:46;12.40;55.80
10431;DHT22;5262;59.958;17.726;2023-04-29T10:12:20;11.90;58.10
10431;DHT22;5262;59.958;17.726;2023-04-29T10:17:45;12.40;57.40
10431;DHT22;5262;59.958;17.726;2023-04-29T10:20:13;13.10;58.50
10431;DHT22;5262;59.958;17.726;2023-04-29T10:22:48;12.80;56.80
10431;DHT22;5262;59.958;17.726;2023-04-29T10:25:15;12.50;57.00
10431;DHT22;5262;59.958;17.726;2023-04-29T10:27:42;12.00;57.30
10431;DHT22;5262;59.958;17.726;2023-04-29T10:30:11;11.70;59.10
10431;DHT22;5262;59.958;17.726;2023-04-29T10:32:39;11.60;59.40
10431;DHT22;5262;59.958;17.726;2023-04-29T10:35:08;11.00;60.90
10431;DHT22;5262;59.958;17.726;2023-04-29T10:37:35;10.50;60.90
10431;DHT22;5262;59.958;17.726;2023-04-29T10:40:25;10.30;62.20
10431;DHT22;5262;59.958;17.726;2023-04-29T10:42:53;10.30;64.00
10431;DHT22;5262;59.958;17.726;2023-04-29T10:45:27;10.20;64.20
10431;DHT22;5262;59.958;17.726;2023-04-29T10:53:14;10.60;66.80
10431;DHT22;5262;59.958;17.726;2023-04-29T10:55:40;11.40;67.20
10431;DHT22;5262;59.958;17.726;2023-04-29T10:58:41;11.80;65.10
10431;DHT22;5262;59.958;17.726;2023-04-29T11:01:16;11.90;63.20
10431;DHT22;5262;59.958;17.726;2023-04-29T11:03:49;11.80;63.10
10431;DHT22;5262;59.958;17.726;2023-04-29T11:06:23;11.90;66.10
10431;DHT22;5262;59.958;17.726;2023-04-29T11:09:03;12.00;63.70
10431;DHT22;5262;59.958;17.726;2023-04-29T11:14:24;11.60;66.80
10431;DHT22;5262;59.958;17.726;2023-04-29T11:16:59;11.20;66.90
10431;DHT22;5262;59.958;17.726;2023-04-29T11:19:31;10.90;66.80
10431;DHT22;5262;59.958;17.726;2023-04-29T11:22:26;10.80;67.00
10431;DHT22;5262;59.958;17.726;2023-04-29T11:24:53;10.60;66.70
10431;DHT22;5262;59.958;17.726;2023-04-29T11:27:20;10.40;72.20
10431;DHT22;5262;59.958;17.726;2023-04-29T11:29:53;10.20;71.50
10431;DHT22;5262;59.958;17.726;2023-04-29T11:32:30;10.00;71.80
10431;DHT22;5262;59.958;17.726;2023-04-29T11:35:13;10.10;74.70
10431;DHT22;5262;59.958;17.726;2023-04-29T11:37:40;10.20;74.30
10431;DHT22;5262;59.958;17.726;2023-04-29T11:40:06;10.00;73.00
10431;DHT22;5262;59.958;17.726;2023-04-29T11:42:40;10.00;72.80
10431;DHT22;5262;59.958;17.726;2023-04-29T11:45:07;10.20;74.80
10431;DHT22;5262;59.958;17.726;2023-04-29T11:47:32;10.50;74.40
10431;DHT22;5262;59.958;17.726;2023-04-29T11:50:05;10.70;73.20
10431;DHT22;5262;59.958;17.726;2023-04-29T11:52:34;11.10;74.30
10431;DHT22;5262;59.958;17.726;2023-04-29T11:55:02;11.50;73.10
10431;DHT22;5262;59.958;17.726;2023-04-29T11:57:28;12.10;72.50
10431;DHT22;5262;59.958;17.726;2023-04-29T11:59:53;12.00;70.00
10431;DHT22;5262;59.958;17.726;2023-04-29T12:02:30;12.40;68.90
10431;DHT22;5262;59.958;17.726;2023-04-29T12:04:57;12.60;67.30
10431;DHT22;5262;59.958;17.726;2023-04-29T12:07:23;12.40;67.10
10431;DHT22;5262;59.958;17.726;2023-04-29T12:09:49;12.10;68.00
10431;DHT22;5262;59.958;17.726;2023-04-29T12:12:15;11.20;68.10
10431;DHT22;5262;59.958;17.726;2023-04-29T12:14:41;11.10;64.90
10431;DHT22;5262;59.958;17.726;2023-04-29T12:17:08;10.80;62.30
10431;DHT22;5262;59.958;17.726;2023-04-29T12:19:34;10.70;64.90
10431;DHT22;5262;59.958;17.726;2023-04-29T12:22:04;10.70;64.30
10431;DHT22;5262;59.958;17.726;2023-04-29T12:24:35;10.50;65.80
10431;DHT22;5262;59.958;17.726;2023-04-29T12:27:01;10.40;60.40
10431;DHT22;5262;59.958;17.726;2023-04-29T12:29:27;10.50;61.50
10431;DHT22;5262;59.958;17.726;2023-04-29T12:31:55;10.70;60.10
10431;DHT22;5262;59.958;17.726;2023-04-29T12:34:25;10.70;52.60
10431;DHT22;5262;59.958;17.726;2023-04-29T12:36:51;10.70;48.60
10431;DHT22;5262;59.958;17.726;2023-04-29T12:39:18;10.70;49.90
10431;DHT22;5262;59.958;17.726;2023-04-29T12:41:44;10.70;52.10
10431;DHT22;5262;59.958;17.726;2023-04-29T12:44:10;10.50;48.70
10431;DHT22;5262;59.958;17.726;2023-04-29T12:46:37;10.30;52.20
10431;DHT22;5262;59.958;17.726;2023-04-29T12:49:04;9.90;55.50
10431;DHT22;5262;59.958;17.726;2023-04-29T12:51:31;9.80;58.40
10431;DHT22;5262;59.958;17.726;2023-04-29T12:54:01;9.80;56.00
10431;DHT22;5262;59.958;17.726;2023-04-29T12:56:32;9.80;58.70
10431;DHT22;5262;59.958;17.726;2023-04-29T12:59:08;9.80;58.10
10431;DHT22;5262;59.958;17.726;2023-04-29T13:01:37;10.00;57.60
10431;DHT22;5262;59.958;17.726;2023-04-29T13:04:04;10.10;57.30
10431;DHT22;5262;59.958;17.726;2023-04-29T13:06:31;10.30;58.50
10431;DHT22;5262;59.958;17.726;2023-04-29T13:08:57;10.40;56.50
10431;DHT22;5262;59.958;17.726;2023-04-29T13:11:23;10.60;58.30
10431;DHT22;5262;59.958;17.726;2023-04-29T13:13:48;10.40;56.70
10431;DHT22;5262;59.958;17.726;2023-04-29T13:16:14;10.40;59.50
10431;DHT22;5262;59.958;17.726;2023-04-29T13:18:39;10.20;65.50
10431;DHT22;5262;59.958;17.726;2023-04-29T13:21:06;9.80;70.50
10431;DHT22;5262;59.958;17.726;2023-04-29T13:23:31;9.40;73.80
10431;DHT22;5262;59.958;17.726;2023-04-29T13:25:57;9.30;75.20
10431;DHT22;5262;59.958;17.726;2023-04-29T13:28:22;9.20;77.40
10431;DHT22;5262;59.958;17.726;2023-04-29T13:30:48;9.00;76.70
10431;DHT22;5262;59.958;17.726;2023-04-29T13:33:15;8.90;78.20
10431;DHT22;5262;59.958;17.726;2023-04-29T13:35:40;9.00;78.50
10431;DHT22;5262;59.958;17.726;2023-04-29T13:38:07;9.20;78.70
10431;DHT22;5262;59.958;17.726;2023-04-29T13:40:32;9.30;77.50
10431;DHT22;5262;59.958;17.726;2023-04-29T13:42:58;9.30;76.20
10431;DHT22;5262;59.958;17.726;2023-04-29T13:45:24;9.40;77.40
10431;DHT22;5262;59.958;17.726;2023-04-29T13:47:49;9.50;78.20
10431;DHT22;5262;59.958;17.726;2023-04-29T13:50:15;9.20;78.60
10431;DHT22;5262;59.958;17.726;2023-04-29T13:52:41;9.50;79.90
10431;DHT22;5262;59.958;17.726;2023-04-29T13:55:07;9.40;79.10
10431;DHT22;5262;59.958;17.726;2023-04-29T13:57:33;10.00;79.30
10431;DHT22;5262;59.958;17.726;2023-04-29T13:59:59;10.50;77.90
10431;DHT22;5262;59.958;17.726;2023-04-29T14:02:24;10.20;77.60
10431;DHT22;5262;59.958;17.726;2023-04-29T14:04:50;9.80;79.90
10431;DHT22;5262;59.958;17.726;2023-04-29T14:07:16;10.00;81.70
10431;DHT22;5262;59.958;17.726;2023-04-29T14:09:41;9.60;81.70
10431;DHT22;5262;59.958;17.726;2023-04-29T14:12:07;9.40;82.70
10431;DHT22;5262;59.958;17.726;2023-04-29T14:14:33;9.60;83.50
10431;DHT22;5262;59.958;17.726;2023-04-29T14:16:58;9.60;84.10
10431;DHT22;5262;59.958;17.726;2023-04-29T14:19:25;9.50;83.30
10431;DHT22;5262;59.958;17.726;2023-04-29T14:21:51;9.40;83.90
10431;DHT22;5262;59.958;17.726;2023-04-29T14:24:17;9.30;84.10
10431;DHT22;5262;59.958;17.726;2023-04-29T14:26:42;9.20;83.90
10431;DHT22;5262;59.958;17.726;2023-04-29T14:29:08;9.10;83.90
10431;DHT22;5262;59.958;17.726;2023-04-29T14:31:34;9.20;85.10
10431;DHT22;5262;59.958;17.726;2023-04-29T14:34:03;9.10;84.70
10431;DHT22;5262;59.958;17.726;2023-04-29T14:36:28;8.90;85.20
10431;DHT22;5262;59.958;17.726;2023-04-29T14:38:54;8.90;85.20
10431;DHT22;5262;59.958;17.726;2023-04-29T14:41:20;8.80;85.70
10431;DHT22;5262;59.958;17.726;2023-04-29T14:43:46;8.80;86.20
10431;DHT22;5262;59.958;17.726;2023-04-29T14:46:12;8.80;85.80
10431;DHT22;5262;59.958;17.726;2023-04-29T14:48:37;8.80;86.50
10431;DHT22;5262;59.958;17.726;2023-04-29T14:51:04;8.70;86.60
10431;DHT22;5262;59.958;17.726;2023-04-29T14:53:30;8.50;86.70
10431;DHT22;5262;59.958;17.726;2023-04-29T14:55:56;8.50;92.00
10431;DHT22;5262;59.958;17.726;2023-04-29T14:58:22;8.30;91.40
10431;DHT22;5262;59.958;17.726;2023-04-29T15:00:47;8.30;91.70
10431;DHT22;5262;59.958;17.726;2023-04-29T15:03:15;8.20;91.10
10431;DHT22;5262;59.958;17.726;2023-04-29T15:05:41;8.30;91.90
10431;DHT22;5262;59.958;17.726;2023-04-29T15:08:07;8.40;92.10
10431;DHT22;5262;59.958;17.726;2023-04-29T15:10:32;8.40;92.60
10431;DHT22;5262;59.958;17.726;2023-04-29T15:12:58;8.50;94.60
10431;DHT22;5262;59.958;17.726;2023-04-29T15:15:25;8.50;96.70
10431;DHT22;5262;59.958;17.726;2023-04-29T15:17:50;8.40;97.10
10431;DHT22;5262;59.958;17.726;2023-04-29T15:20:16;8.20;95.90
10431;DHT22;5262;59.958;17.726;2023-04-29T15:22:42;8.20;96.70
10431;DHT22;5262;59.958;17.726;2023-04-29T15:25:08;8.00;97.90
10431;DHT22;5262;59.958;17.726;2023-04-29T15:27:36;8.00;96.70
10431;DHT22;5262;59.958;17.726;2023-04-29T15:30:05;8.00;97.50
10431;DHT22;5262;59.958;17.726;2023-04-29T15:32:31;8.00;98.40
10431;DHT22;5262;59.958;17.726;2023-04-29T15:34:58;7.90;97.60
10431;DHT22;5262;59.958;17.726;2023-04-29T15:37:25;7.90;97.80
10431;DHT22;5262;59.958;17.726;2023-04-29T15:39:52;7.90;97.60
10431;DHT22;5262;59.958;17.726;2023-04-29T15:42:18;7.80;97.80
10431;DHT22;5262;59.958;17.726;2023-04-29T15:44:43;7.70;99.30
10431;DHT22;5262;59.958;17.726;2023-04-29T15:47:09;7.60;99.80
10431;DHT22;5262;59.958;17.726;2023-04-29T15:49:35;7.60;99.90
10431;DHT22;5262;59.958;17.726;2023-04-29T15:52:00;7.50;99.90
10431;DHT22;5262;59.958;17.726;2023-04-29T15:54:26;7.50;99.90
10431;DHT22;5262;59.958;17.726;2023-04-29T15:56:52;7.30;99.90
10431;DHT22;5262;59.958;17.726;2023-04-29T15:59:19;7.10;99.90
10431;DHT22;5262;59.958;17.726;2023-04-29T16:01:45;6.80;99.90
10431;DHT22;5262;59.958;17.726;2023-04-29T16:04:10;6.40;99.90
10431;DHT22;5262;59.958;17.726;2023-04-29T16:06:36;6.10;99.90